Time;durP1;ratioP1;P1;durP2;ratioP2;P2;SDS_P1;SDS_P2;PMS_P1;PMS_P2;Temp;Humidity;BMP_temperature;BMP_pressure;BME280_temperature;BME280_humidity;BME280_pressure;Samples;Min_cycle;Max_cycle;Signal;HPM_P1;HPM_P2
2022/09/28 00:01:13;;;;;;;1.65;0.25;;;;;;;;;;4933523;29;20052;-71
2022/09/28 00:03:38;;;;;;;0.57;0.40;;;;;;;;;;4942424;28;20047;-69
2022/09/28 00:06:07;;;;;;;1.55;0.30;;;;;;;;;;4942480;29;20410;-69
2022/09/28 00:08:34;;;;;;;0.30;0.30;;;;;;;;;;4942743;29;20409;-71
2022/09/28 00:11:01;;;;;;;0.60;0.32;;;;;;;;;;4938543;28;20106;-70
2022/09/28 00:13:27;;;;;;;0.63;0.40;;;;;;;;;;4936698;29;20049;-68
2022/09/28 00:16:19;;;;;;;3.30;0.40;;;;;;;;;;4942259;28;20074;-70
2022/09/28 00:18:45;;;;;;;2.05;0.30;;;;;;;;;;4938520;29;20051;-69
2022/09/28 00:21:16;;;;;;;0.40;0.32;;;;;;;;;;4941720;28;20046;-71
2022/09/28 00:26:28;;;;;;;1.00;0.50;;;;;;;;;;4942338;29;20050;-70
2022/09/28 00:28:56;;;;;;;0.50;0.40;;;;;;;;;;4909485;29;20090;-70
2022/09/28 00:31:23;;;;;;;1.23;0.30;;;;;;;;;;4942180;29;20066;-70
2022/09/28 00:33:55;;;;;;;0.85;0.47;;;;;;;;;;4925720;28;20508;-71
2022/09/28 00:36:22;;;;;;;0.30;0.30;;;;;;;;;;4942331;29;20093;-70
2022/09/28 00:38:48;;;;;;;0.40;0.40;;;;;;;;;;4941440;28;20045;-70
2022/09/28 00:41:14;;;;;;;1.75;0.35;;;;;;;;;;4928511;29;20036;-70
2022/09/28 00:43:40;;;;;;;0.65;0.43;;;;;;;;;;4941161;29;20055;-71
2022/09/28 00:46:14;;;;;;;0.80;0.43;;;;;;;;;;4930113;28;20209;-70
2022/09/28 00:48:49;;;;;;;1.48;0.30;;;;;;;;;;4942288;29;20386;-70
2022/09/28 00:51:14;;;;;;;0.45;0.35;;;;;;;;;;4886874;29;20325;-70
2022/09/28 00:53:42;;;;;;;0.73;0.40;;;;;;;;;;4926164;29;20099;-70
2022/09/28 00:56:12;;;;;;;0.55;0.40;;;;;;;;;;4938083;28;20053;-70
2022/09/28 00:58:45;;;;;;;0.68;0.30;;;;;;;;;;4910447;29;20580;-70
2022/09/28 01:01:11;;;;;;;0.40;0.40;;;;;;;;;;4921386;29;20052;-70
2022/09/28 01:03:40;;;;;;;1.48;0.45;;;;;;;;;;4941964;29;20049;-71
2022/09/28 01:06:07;;;;;;;0.45;0.40;;;;;;;;;;4934249;29;20052;-71
2022/09/28 01:08:34;;;;;;;0.43;0.43;;;;;;;;;;4931111;28;20516;-70
2022/09/28 01:11:01;;;;;;;1.00;0.32;;;;;;;;;;4942692;29;20055;-71
2022/09/28 01:13:27;;;;;;;0.30;0.30;;;;;;;;;;4945040;28;20061;-69
2022/09/28 01:16:00;;;;;;;0.35;0.35;;;;;;;;;;4912384;29;20052;-71
2022/09/28 01:18:48;;;;;;;0.32;0.32;;;;;;;;;;4935627;28;20051;-70
2022/09/28 01:21:21;;;;;;;1.55;0.30;;;;;;;;;;4944803;29;20083;-71
2022/09/28 01:24:11;;;;;;;0.68;0.50;;;;;;;;;;4942531;29;20051;-70
2022/09/28 01:26:47;;;;;;;0.30;0.30;;;;;;;;;;4925315;28;20054;-69
2022/09/28 01:29:34;;;;;;;3.30;0.40;;;;;;;;;;4934616;29;20062;-70
2022/09/28 01:32:32;;;;;;;1.10;0.40;;;;;;;;;;4919684;29;20043;-69
2022/09/28 01:35:06;;;;;;;0.40;0.40;;;;;;;;;;4934746;28;20053;-70
2022/09/28 01:37:53;;;;;;;1.58;0.40;;;;;;;;;;4913962;29;20126;-70
2022/09/28 01:40:24;;;;;;;1.50;0.30;;;;;;;;;;4919496;29;20039;-71
2022/09/28 01:42:56;;;;;;;2.65;0.40;;;;;;;;;;4944081;28;20079;-71
2022/09/28 01:45:27;;;;;;;1.13;0.30;;;;;;;;;;4933270;28;20063;-71
2022/09/28 01:47:57;;;;;;;1.30;0.50;;;;;;;;;;4935670;29;20063;-69
2022/09/28 01:50:26;;;;;;;0.82;0.40;;;;;;;;;;4913094;29;20550;-71
2022/09/28 01:53:18;;;;;;;0.57;0.57;;;;;;;;;;4924627;29;20047;-71
2022/09/28 01:55:50;;;;;;;0.55;0.50;;;;;;;;;;4915917;29;20081;-70
2022/09/28 01:58:29;;;;;;;0.60;0.50;;;;;;;;;;4935735;29;20085;-70
2022/09/28 02:01:02;;;;;;;0.85;0.40;;;;;;;;;;4926862;28;20051;-69
2022/09/28 02:03:41;;;;;;;1.02;0.35;;;;;;;;;;4914500;29;20059;-71
2022/09/28 02:06:19;;;;;;;1.75;1.17;;;;;;;;;;4912429;29;20075;-70
2022/09/28 02:08:53;;;;;;;0.50;0.50;;;;;;;;;;4923831;29;20047;-71
2022/09/28 02:11:22;;;;;;;1.65;0.50;;;;;;;;;;4914059;29;20047;-70
2022/09/28 02:13:53;;;;;;;2.35;0.65;;;;;;;;;;4911526;29;20060;-71
2022/09/28 02:16:28;;;;;;;0.65;0.40;;;;;;;;;;4918976;29;20450;-71
2022/09/28 02:18:54;;;;;;;0.47;0.40;;;;;;;;;;4941809;28;20142;-71
2022/09/28 02:21:38;;;;;;;0.45;0.45;;;;;;;;;;4914194;29;20127;-71
2022/09/28 02:24:16;;;;;;;1.67;1.42;;;;;;;;;;4943023;29;20046;-71
2022/09/28 02:26:44;;;;;;;0.50;0.50;;;;;;;;;;4927627;29;20050;-71
2022/09/28 02:29:10;;;;;;;0.38;0.38;;;;;;;;;;4922176;29;20067;-70
2022/09/28 02:31:36;;;;;;;0.60;0.40;;;;;;;;;;4923183;28;20078;-70
2022/09/28 02:34:02;;;;;;;0.40;0.40;;;;;;;;;;4926225;29;20058;-68
2022/09/28 02:36:28;;;;;;;0.73;0.47;;;;;;;;;;4929057;29;20047;-70
2022/09/28 02:38:56;;;;;;;2.13;0.60;;;;;;;;;;4940437;28;20051;-68
2022/09/28 02:41:40;;;;;;;0.32;0.32;;;;;;;;;;4924356;28;20036;-69
2022/09/28 02:44:24;;;;;;;0.30;0.30;;;;;;;;;;4920511;29;20110;-70
2022/09/28 02:47:35;;;;;;;0.30;0.30;;;;;;;;;;4910824;29;20757;-69
2022/09/28 02:50:29;;;;;;;1.48;1.38;;;;;;;;;;4926594;29;20055;-67
2022/09/28 02:53:23;;;;;;;0.35;0.35;;;;;;;;;;4934272;29;20476;-70
2022/09/28 02:56:24;;;;;;;0.70;0.60;;;;;;;;;;4926504;29;20051;-70
2022/09/28 02:58:55;;;;;;;0.88;0.63;;;;;;;;;;4920843;29;20424;-69
2022/09/28 03:01:39;;;;;;;1.55;0.70;;;;;;;;;;4941573;29;20121;-70
2022/09/28 03:04:16;;;;;;;0.50;0.50;;;;;;;;;;4926869;28;20102;-67
2022/09/28 03:06:47;;;;;;;0.65;0.65;;;;;;;;;;4910980;29;20048;-70
2022/09/28 03:09:28;;;;;;;3.92;0.77;;;;;;;;;;4913350;29;20134;-69
2022/09/28 03:12:02;;;;;;;1.52;0.80;;;;;;;;;;4926293;29;20095;-70
2022/09/28 03:14:27;;;;;;;0.70;0.70;;;;;;;;;;4931048;28;20645;-68
2022/09/28 03:16:55;;;;;;;0.73;0.73;;;;;;;;;;4914742;29;20516;-70
2022/09/28 03:19:26;;;;;;;0.95;0.80;;;;;;;;;;4929564;29;20055;-70
2022/09/28 03:21:51;;;;;;;1.80;1.02;;;;;;;;;;4915650;29;20055;-67
2022/09/28 03:24:17;;;;;;;1.13;0.90;;;;;;;;;;4920871;29;20980;-70
2022/09/28 03:26:42;;;;;;;1.90;1.10;;;;;;;;;;4922994;29;20057;-68
2022/09/28 03:29:09;;;;;;;0.70;0.70;;;;;;;;;;4907035;29;20040;-70
2022/09/28 03:31:35;;;;;;;1.27;1.17;;;;;;;;;;4920512;29;20058;-70
2022/09/28 03:34:00;;;;;;;1.00;1.00;;;;;;;;;;4926257;29;20043;-71
2022/09/28 03:36:26;;;;;;;5.57;1.05;;;;;;;;;;4920485;29;20046;-68
2022/09/28 03:38:55;;;;;;;1.98;1.27;;;;;;;;;;4931204;28;20412;-69
2022/09/28 03:41:23;;;;;;;1.23;1.23;;;;;;;;;;4925781;29;20050;-69
2022/09/28 03:43:49;;;;;;;1.20;1.15;;;;;;;;;;4925494;29;20062;-69
2022/09/28 03:46:14;;;;;;;1.33;1.23;;;;;;;;;;4934015;28;20055;-67
2022/09/28 03:48:44;;;;;;;1.40;1.30;;;;;;;;;;4933194;29;20054;-74
2022/09/28 03:51:11;;;;;;;2.45;1.50;;;;;;;;;;4922242;28;20051;-69
2022/09/28 03:53:38;;;;;;;1.63;1.40;;;;;;;;;;4937664;29;20103;-68
2022/09/28 03:56:16;;;;;;;1.85;1.55;;;;;;;;;;4911214;29;20050;-71
2022/09/28 03:58:41;;;;;;;3.50;1.60;;;;;;;;;;4943014;28;20086;-69
2022/09/28 04:01:14;;;;;;;2.00;1.80;;;;;;;;;;4925743;28;20393;-70
2022/09/28 04:03:40;;;;;;;1.80;1.70;;;;;;;;;;4909673;28;20052;-70
2022/09/28 04:06:06;;;;;;;1.67;1.58;;;;;;;;;;4910261;29;20045;-69
2022/09/28 04:08:32;;;;;;;2.78;1.60;;;;;;;;;;4931189;28;20047;-70
2022/09/28 04:10:59;;;;;;;2.65;2.03;;;;;;;;;;4925316;28;20047;-69
2022/09/28 04:13:26;;;;;;;2.67;2.00;;;;;;;;;;4925629;29;20125;-70
2022/09/28 04:15:56;;;;;;;2.15;1.95;;;;;;;;;;4916194;28;20039;-71
2022/09/28 04:18:23;;;;;;;6.47;1.90;;;;;;;;;;4905410;28;20044;-69
2022/09/28 04:21:15;;;;;;;;;;;;;;;;;;4897493;29;20076;-69
2022/09/28 04:23:44;;;;;;;2.35;2.15;;;;;;;;;;4925359;29;19980;-69
2022/09/28 04:26:21;;;;;;;2.10;2.00;;;;;;;;;;4926611;28;20035;-70
2022/09/28 04:31:37;;;;;;;2.72;2.00;;;;;;;;;;4924132;29;20046;-70
2022/09/28 04:34:03;;;;;;;2.55;2.10;;;;;;;;;;4925013;28;20078;-68
2022/09/28 04:36:29;;;;;;;4.40;2.30;;;;;;;;;;4922006;29;20068;-69
2022/09/28 04:38:55;;;;;;;2.58;2.22;;;;;;;;;;4924795;28;20904;-70
2022/09/28 04:41:23;;;;;;;2.53;2.25;;;;;;;;;;4927141;28;20083;-68
2022/09/28 04:43:49;;;;;;;2.38;2.25;;;;;;;;;;4930506;28;20071;-69
2022/09/28 04:46:14;;;;;;;1.95;1.75;;;;;;;;;;4924435;29;20130;-69
2022/09/28 04:48:46;;;;;;;4.15;2.00;;;;;;;;;;4942595;28;20047;-69
2022/09/28 04:51:31;;;;;;;2.08;1.88;;;;;;;;;;4912950;29;20062;-68
2022/09/28 04:53:56;;;;;;;5.93;1.85;;;;;;;;;;4942185;29;20055;-70
2022/09/28 04:56:22;;;;;;;3.53;2.08;;;;;;;;;;4924280;29;20039;-68
2022/09/28 04:58:48;;;;;;;2.45;2.10;;;;;;;;;;4925453;29;20082;-68
2022/09/28 05:01:17;;;;;;;2.08;1.90;;;;;;;;;;4929454;28;20047;-67
2022/09/28 05:03:57;;;;;;;2.33;2.13;;;;;;;;;;4931762;28;20134;-70
2022/09/28 05:10:23;;;;;;;2.88;2.55;;;;;;;;;;4935841;29;20114;-68
2022/09/28 05:12:50;;;;;;;2.30;2.10;;;;;;;;;;4923558;28;20051;-69
2022/09/28 05:15:16;;;;;;;2.58;2.38;;;;;;;;;;4930003;28;20410;-68
2022/09/28 05:17:42;;;;;;;2.10;2.00;;;;;;;;;;4916712;29;20086;-70
2022/09/28 05:20:18;;;;;;;3.08;2.40;;;;;;;;;;4923766;29;20047;-69
2022/09/28 05:22:43;;;;;;;4.25;2.20;;;;;;;;;;4922802;29;20047;-69
2022/09/28 05:25:09;;;;;;;3.65;1.90;;;;;;;;;;4926287;28;20045;-69
2022/09/28 05:27:46;;;;;;;2.90;2.40;;;;;;;;;;4923527;29;20051;-69
2022/09/28 05:30:33;;;;;;;2.72;2.53;;;;;;;;;;4919086;29;20051;-72
2022/09/28 05:33:17;;;;;;;2.10;1.90;;;;;;;;;;4937248;29;20058;-69
2022/09/28 05:35:52;;;;;;;5.63;1.98;;;;;;;;;;4923545;29;20039;-70
2022/09/28 05:38:18;;;;;;;1.80;1.70;;;;;;;;;;4925544;29;20408;-70
2022/09/28 05:40:43;;;;;;;2.28;2.08;;;;;;;;;;4907967;29;20101;-70
2022/09/28 05:43:09;;;;;;;4.32;2.13;;;;;;;;;;4911161;29;20396;-69
2022/09/28 05:45:35;;;;;;;11.93;2.22;;;;;;;;;;4930043;29;20047;-70
2022/09/28 05:48:02;;;;;;;2.50;2.00;;;;;;;;;;4925151;29;20047;-69
2022/09/28 05:50:28;;;;;;;2.08;1.88;;;;;;;;;;4937430;28;20051;-69
2022/09/28 05:52:58;;;;;;;1.80;1.70;;;;;;;;;;4924977;29;20044;-71
2022/09/28 05:55:23;;;;;;;3.42;2.00;;;;;;;;;;4915167;29;20102;-69
2022/09/28 05:57:49;;;;;;;3.17;2.08;;;;;;;;;;4908957;29;20051;-71
2022/09/28 06:00:14;;;;;;;2.40;1.90;;;;;;;;;;4925010;29;20066;-70
2022/09/28 06:03:00;;;;;;;2.78;2.35;;;;;;;;;;4928977;28;20090;-75
2022/09/28 06:05:28;;;;;;;4.25;2.00;;;;;;;;;;4939926;29;20074;-69
2022/09/28 06:08:00;;;;;;;2.72;2.53;;;;;;;;;;4942519;29;20501;-70
2022/09/28 06:10:27;;;;;;;2.55;2.13;;;;;;;;;;4928816;29;20058;-70
2022/09/28 06:12:57;;;;;;;2.22;2.05;;;;;;;;;;4917277;28;20039;-69
2022/09/28 06:15:25;;;;;;;2.13;1.95;;;;;;;;;;4939648;29;20619;-70
2022/09/28 06:17:56;;;;;;;2.53;2.15;;;;;;;;;;4936529;29;20304;-70
2022/09/28 06:20:41;;;;;;;2.85;2.08;;;;;;;;;;4919236;29;20047;-69
2022/09/28 06:23:18;;;;;;;2.10;1.90;;;;;;;;;;4924893;29;20312;-70
2022/09/28 06:25:43;;;;;;;2.40;2.08;;;;;;;;;;4923085;29;20052;-70
2022/09/28 06:28:14;;;;;;;3.83;2.42;;;;;;;;;;4932312;29;20390;-69
2022/09/28 06:30:40;;;;;;;3.90;3.40;;;;;;;;;;4897662;29;20044;-70
2022/09/28 06:33:12;;;;;;;3.28;2.58;;;;;;;;;;4892123;29;20327;-69
2022/09/28 06:35:38;;;;;;;3.55;2.58;;;;;;;;;;4910081;29;20106;-69
2022/09/28 06:38:05;;;;;;;3.38;2.55;;;;;;;;;;4908008;29;20445;-71
2022/09/28 06:40:32;;;;;;;2.40;2.20;;;;;;;;;;4917168;29;20496;-71
2022/09/28 06:42:58;;;;;;;2.65;2.45;;;;;;;;;;4937982;29;20113;-71
2022/09/28 06:45:50;;;;;;;2.67;2.47;;;;;;;;;;4935786;28;20050;-71
2022/09/28 06:48:32;;;;;;;3.28;2.65;;;;;;;;;;4913146;29;20520;-71
2022/09/28 06:50:59;;;;;;;4.88;2.45;;;;;;;;;;4942781;28;20523;-70
2022/09/28 06:53:27;;;;;;;4.53;2.97;;;;;;;;;;4914125;29;20051;-70
2022/09/28 06:56:18;;;;;;;4.40;2.78;;;;;;;;;;4923248;28;20047;-70
2022/09/28 06:58:43;;;;;;;3.75;2.83;;;;;;;;;;4943457;29;20106;-70
2022/09/28 07:01:10;;;;;;;3.33;2.95;;;;;;;;;;4910272;29;20609;-71
2022/09/28 07:03:56;;;;;;;4.75;2.90;;;;;;;;;;4931018;28;20050;-69
2022/09/28 07:06:45;;;;;;;4.40;3.63;;;;;;;;;;4935656;29;20049;-69
2022/09/28 07:09:32;;;;;;;4.63;2.53;;;;;;;;;;4917707;29;20052;-69
2022/09/28 07:12:12;;;;;;;3.95;2.47;;;;;;;;;;4914550;29;20072;-69
2022/09/28 07:15:01;;;;;;;2.50;2.22;;;;;;;;;;4928251;28;20055;-70
2022/09/28 07:17:27;;;;;;;2.67;2.20;;;;;;;;;;4938802;28;20074;-69
2022/09/28 07:19:57;;;;;;;1.85;1.75;;;;;;;;;;4939669;28;20047;-68
2022/09/28 07:22:22;;;;;;;3.90;1.70;;;;;;;;;;4913244;29;20059;-69
2022/09/28 07:24:49;;;;;;;6.50;2.10;;;;;;;;;;4938004;28;20043;-69
2022/09/28 07:27:35;;;;;;;4.05;2.25;;;;;;;;;;4936605;28;20187;-69
2022/09/28 07:30:31;;;;;;;1.50;1.40;;;;;;;;;;4918488;29;20043;-69
2022/09/28 07:33:14;;;;;;;2.30;1.98;;;;;;;;;;4917839;29;21127;-67
2022/09/28 07:35:55;;;;;;;2.97;2.13;;;;;;;;;;4910438;29;20494;-70
2022/09/28 07:38:25;;;;;;;1.90;1.80;;;;;;;;;;4940529;28;20043;-68
2022/09/28 07:43:40;;;;;;;1.80;1.38;;;;;;;;;;4926845;28;20493;-69
2022/09/28 07:46:13;;;;;;;3.20;1.20;;;;;;;;;;4917879;29;20575;-68
2022/09/28 07:48:44;;;;;;;1.30;1.10;;;;;;;;;;4934132;28;20054;-67
2022/09/28 07:51:29;;;;;;;1.33;0.88;;;;;;;;;;4933140;29;20062;-70
2022/09/28 07:54:14;;;;;;;1.58;1.13;;;;;;;;;;4942305;29;20141;-70
2022/09/28 07:56:53;;;;;;;0.95;0.80;;;;;;;;;;4924657;29;20039;-70
2022/09/28 07:59:44;;;;;;;1.83;1.27;;;;;;;;;;4918916;29;20461;-70
2022/09/28 08:02:26;;;;;;;1.15;0.80;;;;;;;;;;4941164;28;20055;-70
2022/09/28 08:04:52;;;;;;;2.22;0.88;;;;;;;;;;4932474;29;20472;-70
2022/09/28 08:07:18;;;;;;;0.70;0.70;;;;;;;;;;4918128;29;20568;-70
2022/09/28 08:09:47;;;;;;;0.68;0.60;;;;;;;;;;4932162;28;20564;-71
2022/09/28 08:12:18;;;;;;;0.93;0.82;;;;;;;;;;4926748;29;20067;-71
2022/09/28 08:15:09;;;;;;;1.35;0.70;;;;;;;;;;4934621;29;20050;-69
2022/09/28 08:17:48;;;;;;;1.95;1.15;;;;;;;;;;4926845;29;20043;-70
2022/09/28 08:23:04;;;;;;;3.75;0.60;;;;;;;;;;4936936;29;21028;-70
2022/09/28 08:25:30;;;;;;;1.02;0.90;;;;;;;;;;4947482;28;21087;-70
2022/09/28 08:27:55;;;;;;;0.50;0.50;;;;;;;;;;4927043;29;20282;-71
2022/09/28 08:30:21;;;;;;;0.73;0.50;;;;;;;;;;4944421;28;20850;-70
2022/09/28 08:32:58;;;;;;;1.13;0.80;;;;;;;;;;4917137;29;20056;-70
2022/09/28 08:35:57;;;;;;;0.68;0.57;;;;;;;;;;4946234;29;20535;-72
2022/09/28 08:38:41;;;;;;;0.93;0.77;;;;;;;;;;4946074;28;20069;-69
2022/09/28 08:41:26;;;;;;;0.30;0.30;;;;;;;;;;4915666;29;20070;-71
2022/09/28 08:44:09;;;;;;;0.50;0.50;;;;;;;;;;4928258;28;20058;-70
2022/09/28 08:47:00;;;;;;;2.47;0.40;;;;;;;;;;4933675;29;20059;-69
2022/09/28 08:49:45;;;;;;;1.27;0.47;;;;;;;;;;4914418;29;20224;-70
2022/09/28 08:52:25;;;;;;;1.00;0.50;;;;;;;;;;4943025;28;20094;-72
2022/09/28 08:55:29;;;;;;;0.35;0.35;;;;;;;;;;4925997;28;20052;-71
2022/09/28 08:57:56;;;;;;;1.13;0.40;;;;;;;;;;4914219;29;20052;-71
2022/09/28 09:00:32;;;;;;;0.55;0.50;;;;;;;;;;4928092;29;20043;-71
2022/09/28 09:02:58;;;;;;;6.47;0.65;;;;;;;;;;4914211;29;20126;-71
2022/09/28 09:05:45;;;;;;;1.05;0.65;;;;;;;;;;4920335;29;20107;-72
2022/09/28 09:08:31;;;;;;;1.25;0.50;;;;;;;;;;4938341;29;20071;-71
2022/09/28 09:11:08;;;;;;;1.10;0.50;;;;;;;;;;4927226;29;20043;-70
2022/09/28 09:13:56;;;;;;;0.63;0.63;;;;;;;;;;4915011;29;20044;-72
2022/09/28 09:16:30;;;;;;;0.60;0.60;;;;;;;;;;4914806;29;20084;-71
2022/09/28 09:19:35;;;;;;;0.50;0.50;;;;;;;;;;4937792;29;20050;-70
2022/09/28 09:22:39;;;;;;;0.50;0.50;;;;;;;;;;4924761;29;20501;-71
2022/09/28 09:25:32;;;;;;;1.38;0.65;;;;;;;;;;4908603;29;20067;-71
2022/09/28 09:28:25;;;;;;;0.50;0.30;;;;;;;;;;4924872;28;20074;-71
2022/09/28 09:31:09;;;;;;;0.73;0.50;;;;;;;;;;4926871;29;20043;-71
2022/09/28 09:33:52;;;;;;;0.40;0.40;;;;;;;;;;4929497;29;20178;-71
2022/09/28 09:36:47;;;;;;;0.45;0.45;;;;;;;;;;4944811;29;20592;-70
2022/09/28 09:39:54;;;;;;;0.95;0.38;;;;;;;;;;4891289;29;20060;-71
2022/09/28 09:42:54;;;;;;;1.25;0.40;;;;;;;;;;4939392;29;20467;-71
2022/09/28 09:45:44;;;;;;;0.20;0.20;;;;;;;;;;4929182;29;20058;-70
2022/09/28 09:48:48;;;;;;;3.00;0.40;;;;;;;;;;4917252;28;20180;-71
2022/09/28 09:51:45;;;;;;;0.38;0.38;;;;;;;;;;4951271;23;20055;-70
2022/09/28 09:54:22;;;;;;;3.78;0.40;;;;;;;;;;4973442;28;20049;-68
2022/09/28 09:57:11;;;;;;;2.45;0.55;;;;;;;;;;4981333;28;20043;-71
2022/09/28 09:59:46;;;;;;;0.45;0.45;;;;;;;;;;4980052;28;20080;-70
2022/09/28 10:02:18;;;;;;;1.92;1.05;;;;;;;;;;4967919;28;20078;-70
2022/09/28 10:05:00;;;;;;;2.92;1.50;;;;;;;;;;4981807;28;20047;-70
2022/09/28 10:07:54;;;;;;;1.92;1.20;;;;;;;;;;4968663;28;20046;-70
2022/09/28 10:10:26;;;;;;;0.65;0.47;;;;;;;;;;4976253;28;20117;-69
2022/09/28 10:12:58;;;;;;;2.40;1.20;;;;;;;;;;4980977;28;20045;-71
2022/09/28 10:15:30;;;;;;;5.70;2.33;;;;;;;;;;4964117;28;20034;-69
2022/09/28 10:18:22;;;;;;;2.33;1.17;;;;;;;;;;4963431;28;20038;-70
2022/09/28 10:21:12;;;;;;;3.78;2.50;;;;;;;;;;4962573;28;20061;-70
2022/09/28 10:24:01;;;;;;;0.70;0.70;;;;;;;;;;4977834;28;20050;-69
2022/09/28 10:26:40;;;;;;;3.90;1.40;;;;;;;;;;4981423;28;20108;-69
2022/09/28 10:29:14;;;;;;;4.68;2.60;;;;;;;;;;4972398;28;20056;-70
2022/09/28 10:31:44;;;;;;;1.98;1.15;;;;;;;;;;4981022;28;20116;-70
2022/09/28 10:34:29;;;;;;;0.60;0.60;;;;;;;;;;4974739;28;20078;-70
2022/09/28 10:37:02;;;;;;;0.75;0.50;;;;;;;;;;4972341;28;20050;-70
2022/09/28 10:39:48;;;;;;;0.85;0.75;;;;;;;;;;4980396;28;20042;-70
2022/09/28 10:42:25;;;;;;;0.57;0.30;;;;;;;;;;4975877;28;20042;-70
2022/09/28 10:44:59;;;;;;;0.57;0.40;;;;;;;;;;4979505;28;20065;-70
2022/09/28 10:47:34;;;;;;;1.48;0.40;;;;;;;;;;4980539;28;20070;-70
2022/09/28 10:50:01;;;;;;;0.95;0.85;;;;;;;;;;4972185;28;21117;-69
2022/09/28 10:52:35;;;;;;;2.33;0.70;;;;;;;;;;4976727;28;20392;-70
2022/09/28 10:55:22;;;;;;;0.60;0.60;;;;;;;;;;4959122;28;20124;-73
2022/09/28 10:57:49;;;;;;;2.15;0.80;;;;;;;;;;4969130;28;20503;-72
2022/09/28 11:00:34;;;;;;;0.55;0.55;;;;;;;;;;4967981;28;20073;-71
2022/09/28 11:03:27;;;;;;;0.40;0.40;;;;;;;;;;4972242;28;20047;-71
2022/09/28 11:06:05;;;;;;;0.43;0.40;;;;;;;;;;4978484;28;20512;-70
2022/09/28 11:08:40;;;;;;;1.67;0.65;;;;;;;;;;4969539;28;20422;-70
2022/09/28 11:11:15;;;;;;;5.20;0.60;;;;;;;;;;4958417;28;20177;-70
2022/09/28 11:13:53;;;;;;;1.30;0.50;;;;;;;;;;4973953;28;20391;-69
2022/09/28 11:16:28;;;;;;;0.32;0.30;;;;;;;;;;4973851;28;20042;-70
2022/09/28 11:19:05;;;;;;;2.25;0.60;;;;;;;;;;4978818;28;20494;-71
2022/09/28 11:21:41;;;;;;;3.55;0.90;;;;;;;;;;4969419;28;20043;-70
2022/09/28 11:24:21;;;;;;;0.80;0.77;;;;;;;;;;4970716;28;20054;-71
2022/09/28 11:26:55;;;;;;;10.02;0.85;;;;;;;;;;4980091;28;20143;-70
2022/09/28 11:29:40;;;;;;;2.45;0.57;;;;;;;;;;4929883;28;20617;-70
2022/09/28 11:32:15;;;;;;;3.90;0.80;;;;;;;;;;4966440;28;20061;-70
2022/09/28 11:35:01;;;;;;;0.85;0.52;;;;;;;;;;4971742;28;20059;-70
2022/09/28 11:37:33;;;;;;;0.60;0.60;;;;;;;;;;4975823;28;20048;-70
2022/09/28 11:40:11;;;;;;;0.85;0.55;;;;;;;;;;4962742;28;20085;-72
2022/09/28 11:43:02;;;;;;;0.38;0.38;;;;;;;;;;4971694;28;20094;-69
2022/09/28 11:45:56;;;;;;;0.95;0.63;;;;;;;;;;4945417;28;20046;-70
2022/09/28 11:48:31;;;;;;;1.88;0.80;;;;;;;;;;4967115;28;20042;-70
2022/09/28 11:51:10;;;;;;;0.70;0.63;;;;;;;;;;4981063;28;20525;-70
2022/09/28 11:53:41;;;;;;;0.80;0.63;;;;;;;;;;4984910;28;20042;-70
2022/09/28 11:56:32;;;;;;;0.60;0.60;;;;;;;;;;4970347;28;20411;-69
2022/09/28 11:59:05;;;;;;;1.67;0.63;;;;;;;;;;4967157;28;20141;-69
2022/09/28 12:01:48;;;;;;;1.02;0.57;;;;;;;;;;4981755;28;20073;-69
2022/09/28 12:04:35;;;;;;;2.95;0.50;;;;;;;;;;4971841;28;20035;-69
2022/09/28 12:07:42;;;;;;;1.55;0.65;;;;;;;;;;4977257;28;20139;-71
2022/09/28 12:10:42;;;;;;;1.17;0.57;;;;;;;;;;4966382;28;20529;-69
2022/09/28 12:13:15;;;;;;;2.20;0.50;;;;;;;;;;4980217;28;20046;-69
2022/09/28 12:16:01;;;;;;;1.27;0.57;;;;;;;;;;4969002;28;20134;-70
2022/09/28 12:18:47;;;;;;;0.63;0.63;;;;;;;;;;4969716;28;20499;-70
2022/09/28 12:21:35;;;;;;;1.65;0.60;;;;;;;;;;4960170;28;20047;-70
2022/09/28 12:24:18;;;;;;;1.63;0.88;;;;;;;;;;4965559;28;20543;-71
2022/09/28 12:27:05;;;;;;;1.42;0.90;;;;;;;;;;4978144;28;20047;-71
2022/09/28 12:29:42;;;;;;;3.25;1.80;;;;;;;;;;4974949;28;20054;-70
2022/09/28 12:32:27;;;;;;;1.30;1.05;;;;;;;;;;4963179;28;20055;-71
2022/09/28 12:34:52;;;;;;;4.05;1.25;;;;;;;;;;4967982;28;20562;-70
2022/09/28 12:37:40;;;;;;;1.20;1.10;;;;;;;;;;4969768;28;20052;-69
2022/09/28 12:40:14;;;;;;;0.73;0.73;;;;;;;;;;4955038;28;20055;-70
2022/09/28 12:43:03;;;;;;;0.70;0.70;;;;;;;;;;4961575;28;20043;-69
2022/09/28 12:45:45;;;;;;;0.60;0.60;;;;;;;;;;4941915;28;20046;-70
2022/09/28 12:48:29;;;;;;;3.35;1.15;;;;;;;;;;4958179;28;20038;-70
2022/09/28 12:51:01;;;;;;;1.92;1.02;;;;;;;;;;4966814;28;20058;-70
2022/09/28 12:53:37;;;;;;;3.03;1.13;;;;;;;;;;4965042;28;20511;-70
2022/09/28 12:56:05;;;;;;;1.15;1.00;;;;;;;;;;4961296;28;20388;-70
2022/09/28 12:58:47;;;;;;;2.60;0.88;;;;;;;;;;4958331;28;20038;-69
2022/09/28 13:01:34;;;;;;;;;;;;;;;;;;4962725;28;20491;-69
2022/09/28 13:04:21;;;;;;;1.20;0.90;;;;;;;;;;4960894;28;19918;-69
2022/09/28 13:07:05;;;;;;;2.05;1.00;;;;;;;;;;4964401;28;20509;-71
2022/09/28 13:10:01;;;;;;;0.85;0.82;;;;;;;;;;4980428;28;20066;-70
2022/09/28 13:12:27;;;;;;;1.65;1.10;;;;;;;;;;4959614;28;20047;-70
2022/09/28 13:15:34;;;;;;;1.20;1.10;;;;;;;;;;4970553;28;20840;-70
2022/09/28 13:18:07;;;;;;;1.58;0.90;;;;;;;;;;4884227;29;21127;-70
2022/09/28 13:21:23;;;;;;;1.13;1.02;;;;;;;;;;4960267;28;20038;-70
2022/09/28 13:23:51;;;;;;;1.75;1.10;;;;;;;;;;4871392;29;20139;-70
2022/09/28 13:26:49;;;;;;;1.33;1.10;;;;;;;;;;4962102;28;20600;-70
2022/09/28 13:29:17;;;;;;;1.50;1.15;;;;;;;;;;4960848;28;20628;-69
2022/09/28 13:31:53;;;;;;;2.72;1.20;;;;;;;;;;4974054;28;20229;-69
2022/09/28 13:34:32;;;;;;;1.58;1.13;;;;;;;;;;4967635;28;20047;-70
2022/09/28 13:37:13;;;;;;;1.30;1.00;;;;;;;;;;4963526;28;20109;-70
2022/09/28 13:39:44;;;;;;;1.85;1.17;;;;;;;;;;4972651;28;20046;-70
2022/09/28 13:42:22;;;;;;;2.35;1.17;;;;;;;;;;4963885;28;20054;-71
2022/09/28 13:45:08;;;;;;;1.65;1.20;;;;;;;;;;4964134;28;20141;-70
2022/09/28 13:48:01;;;;;;;2.17;1.20;;;;;;;;;;4953009;28;20061;-69
2022/09/28 13:50:52;;;;;;;3.00;1.40;;;;;;;;;;4971090;28;20085;-69
2022/09/28 13:53:46;;;;;;;1.48;1.38;;;;;;;;;;4951515;28;20800;-70
2022/09/28 13:56:25;;;;;;;3.15;1.75;;;;;;;;;;4970831;28;20118;-70
2022/09/28 13:59:07;;;;;;;6.15;2.63;;;;;;;;;;4970607;28;20057;-70
2022/09/28 14:01:39;;;;;;;7.47;2.80;;;;;;;;;;4962649;28;20566;-69
2022/09/28 14:04:14;;;;;;;;;;;;;;;;;;4974799;28;20133;-71
2022/09/28 14:06:48;;;;;;;5.32;2.70;;;;;;;;;;4968256;28;19925;-70
2022/09/28 14:09:24;;;;;;;5.35;2.53;;;;;;;;;;4963678;28;20066;-70
2022/09/28 14:12:26;;;;;;;4.93;2.60;;;;;;;;;;4970887;28;20257;-70
2022/09/28 14:14:51;;;;;;;3.50;1.30;;;;;;;;;;4963808;28;20051;-71
2022/09/28 14:17:20;;;;;;;11.88;4.38;;;;;;;;;;4971853;28;20487;-70
2022/09/28 14:19:53;;;;;;;1.73;1.50;;;;;;;;;;4969554;28;20050;-70
2022/09/28 14:22:18;;;;;;;6.10;2.90;;;;;;;;;;4966003;28;20058;-70
2022/09/28 14:25:13;;;;;;;7.53;3.85;;;;;;;;;;4964113;28;20046;-71
2022/09/28 14:27:43;;;;;;;7.28;2.88;;;;;;;;;;4969447;28;20141;-69
2022/09/28 14:30:11;;;;;;;4.25;1.92;;;;;;;;;;4962926;28;20130;-70
2022/09/28 14:32:38;;;;;;;2.60;1.33;;;;;;;;;;4963655;28;20133;-70
2022/09/28 14:35:18;;;;;;;4.65;1.75;;;;;;;;;;4968614;28;20046;-69
2022/09/28 14:41:08;;;;;;;2.83;1.67;;;;;;;;;;4965397;28;20043;-71
2022/09/28 14:43:44;;;;;;;1.60;1.48;;;;;;;;;;4950080;28;20043;-70
2022/09/28 14:46:21;;;;;;;4.75;1.70;;;;;;;;;;4971286;28;20053;-70
2022/09/28 14:49:02;;;;;;;2.92;1.70;;;;;;;;;;4974352;28;20054;-70
2022/09/28 14:51:34;;;;;;;2.00;1.42;;;;;;;;;;4946688;28;20057;-70
2022/09/28 14:54:09;;;;;;;2.97;1.48;;;;;;;;;;4968527;28;20058;-69
2022/09/28 14:56:39;;;;;;;1.30;1.20;;;;;;;;;;4971768;28;20070;-70
2022/09/28 14:59:08;;;;;;;2.08;1.60;;;;;;;;;;4964014;28;20039;-70
2022/09/28 15:01:34;;;;;;;2.20;1.70;;;;;;;;;;4965326;28;20042;-70
2022/09/28 15:04:08;;;;;;;2.17;1.55;;;;;;;;;;4968505;28;20078;-70
2022/09/28 15:06:48;;;;;;;3.08;1.30;;;;;;;;;;4964791;28;20411;-70
2022/09/28 15:09:34;;;;;;;4.22;1.77;;;;;;;;;;4962907;28;20051;-70
2022/09/28 15:12:00;;;;;;;1.48;1.38;;;;;;;;;;4962908;28;20043;-70
2022/09/28 15:14:30;;;;;;;5.97;1.30;;;;;;;;;;4965562;28;20495;-70
2022/09/28 15:17:00;;;;;;;7.18;1.50;;;;;;;;;;4981252;28;21263;-70
2022/09/28 15:19:58;;;;;;;4.53;1.60;;;;;;;;;;4985373;28;20209;-70
2022/09/28 15:22:24;;;;;;;1.50;1.40;;;;;;;;;;4990278;28;20156;-70
2022/09/28 15:24:55;;;;;;;3.38;1.58;;;;;;;;;;4986807;28;21218;-70
2022/09/28 15:27:22;;;;;;;2.05;1.70;;;;;;;;;;4967477;28;20119;-69
2022/09/28 15:30:21;;;;;;;5.90;1.73;;;;;;;;;;4981428;28;20049;-70
2022/09/28 15:32:47;;;;;;;2.25;1.55;;;;;;;;;;4978594;28;20057;-70
2022/09/28 15:35:25;;;;;;;2.25;1.48;;;;;;;;;;4985575;28;20050;-70
2022/09/28 15:37:51;;;;;;;3.78;1.80;;;;;;;;;;4990335;28;20052;-69
2022/09/28 15:40:30;;;;;;;4.28;2.22;;;;;;;;;;4991731;28;20046;-69
2022/09/28 15:42:56;;;;;;;5.97;1.80;;;;;;;;;;4993690;28;20065;-69
2022/09/28 15:45:35;;;;;;;3.10;1.65;;;;;;;;;;4973116;28;20433;-69
2022/09/28 15:48:17;;;;;;;4.68;2.20;;;;;;;;;;4981299;28;20053;-70
2022/09/28 15:50:53;;;;;;;;;;;;;;;;;;4980063;28;20214;-70
2022/09/28 15:53:19;;;;;;;5.15;2.60;;;;;;;;;;4988243;28;19922;-70
2022/09/28 15:55:49;;;;;;;6.40;2.97;;;;;;;;;;4977658;28;20042;-70